Time;durP1;ratioP1;P1;durP2;ratioP2;P2;SDS_P1;SDS_P2;PMS_P1;PMS_P2;Temp;Humidity;BMP_temperature;BMP_pressure;BME280_temperature;BME280_humidity;BME280_pressure;Samples;Min_cycle;Max_cycle;Signal;HPM_P1;HPM_P2
2022/07/26 00:01:59;;;;;;;9.73;3.03;;;17.40;99.90;;;;;;5073369;28;20195;-59
2022/07/26 00:04:28;;;;;;;14.30;3.50;;;17.40;99.90;;;;;;5073410;28;20552;-59
2022/07/26 00:06:57;;;;;;;12.43;3.87;;;17.40;99.90;;;;;;5072044;28;20280;-59
2022/07/26 00:09:25;;;;;;;12.37;2.77;;;17.40;99.90;;;;;;5073166;28;20257;-60
2022/07/26 00:11:55;;;;;;;10.83;3.53;;;17.40;99.90;;;;;;5072122;28;20192;-60
2022/07/26 00:14:27;;;;;;;9.87;3.43;;;17.50;99.90;;;;;;5073551;28;20183;-59
2022/07/26 00:16:58;;;;;;;16.37;3.93;;;17.50;99.90;;;;;;5073435;28;20234;-59
2022/07/26 00:19:26;;;;;;;14.00;3.60;;;17.50;99.90;;;;;;5072989;28;20224;-60
2022/07/26 00:24:38;;;;;;;16.13;3.67;;;17.50;99.90;;;;;;5070938;28;20204;-60
2022/07/26 00:27:08;;;;;;;11.40;3.20;;;17.50;99.90;;;;;;5073094;28;20289;-59
2022/07/26 00:29:36;;;;;;;13.27;3.50;;;17.60;99.90;;;;;;5073088;28;20302;-60
2022/07/26 00:32:06;;;;;;;13.23;3.27;;;17.60;99.90;;;;;;5074643;28;20196;-60
2022/07/26 00:34:34;;;;;;;13.60;3.40;;;17.50;99.90;;;;;;5077298;28;20189;-59
2022/07/26 00:37:02;;;;;;;15.07;3.43;;;17.60;99.90;;;;;;5077444;28;20199;-60
2022/07/26 00:39:31;;;;;;;17.23;3.67;;;17.60;99.90;;;;;;5075971;28;20265;-60
2022/07/26 00:42:00;;;;;;;15.63;3.53;;;17.60;99.90;;;;;;5076059;28;20199;-60
2022/07/26 00:44:38;;;;;;;15.90;3.73;;;17.60;99.90;;;;;;5076714;28;20213;-60
2022/07/26 00:47:07;;;;;;;11.50;3.40;;;17.60;99.90;;;;;;5076924;28;20281;-59
2022/07/26 00:49:35;;;;;;;9.03;3.33;;;17.60;99.90;;;;;;5077008;28;20188;-60
2022/07/26 00:52:05;;;;;;;14.13;3.87;;;17.70;99.90;;;;;;5071115;28;20206;-60
2022/07/26 00:54:34;;;;;;;15.57;3.53;;;17.70;99.90;;;;;;5075741;28;20611;-60
2022/07/26 00:57:03;;;;;;;13.77;4.30;;;17.70;99.90;;;;;;5076439;28;20563;-60
2022/07/26 00:59:31;;;;;;;13.07;3.20;;;17.70;99.90;;;;;;5076531;28;20265;-60
2022/07/26 01:02:05;;;;;;;12.67;3.40;;;17.70;99.90;;;;;;5071361;28;20719;-60
2022/07/26 01:04:34;;;;;;;13.53;3.50;;;17.70;99.90;;;;;;5076380;28;20663;-60
2022/07/26 01:07:03;;;;;;;11.23;3.50;;;17.60;99.90;;;;;;5076038;28;20750;-60
2022/07/26 01:09:43;;;;;;;9.07;3.23;;;17.60;99.90;;;;;;5076324;28;20712;-60
2022/07/26 01:12:11;;;;;;;9.47;3.50;;;17.60;99.90;;;;;;5076289;28;20588;-59
2022/07/26 01:14:43;;;;;;;11.83;3.67;;;17.60;99.90;;;;;;5076296;28;20214;-59
2022/07/26 01:17:13;;;;;;;13.07;2.93;;;17.60;99.90;;;;;;5076574;28;20192;-59
2022/07/26 01:19:42;;;;;;;17.60;4.60;;;17.60;99.90;;;;;;5061929;28;20226;-60
2022/07/26 01:22:12;;;;;;;13.13;3.43;;;17.60;99.90;;;;;;5067557;28;20709;-60
2022/07/26 01:24:42;;;;;;;14.27;3.07;;;17.70;99.90;;;;;;5076080;28;20248;-60
2022/07/26 01:27:11;;;;;;;15.50;3.77;;;17.70;99.90;;;;;;5076869;28;20185;-60
2022/07/26 01:29:39;;;;;;;15.33;3.90;;;17.60;99.90;;;;;;5076081;28;20194;-60
2022/07/26 01:32:08;;;;;;;11.23;3.53;;;17.70;99.90;;;;;;5076204;28;20206;-60
2022/07/26 01:34:37;;;;;;;11.83;3.47;;;17.70;99.90;;;;;;5076006;28;20207;-60
2022/07/26 01:37:06;;;;;;;18.67;4.17;;;17.60;99.90;;;;;;5076151;28;20197;-60
2022/07/26 01:39:36;;;;;;;12.47;3.63;;;17.60;99.90;;;;;;5074695;28;20269;-59
2022/07/26 01:42:04;;;;;;;9.13;3.53;;;17.60;99.90;;;;;;5075653;28;20277;-59
2022/07/26 01:44:33;;;;;;;17.23;4.17;;;17.60;99.90;;;;;;5075361;28;20212;-59
2022/07/26 01:47:02;;;;;;;18.60;4.30;;;17.60;99.90;;;;;;5075808;28;20279;-60
2022/07/26 01:49:30;;;;;;;14.83;4.30;;;17.60;99.90;;;;;;5075481;28;20191;-59
2022/07/26 01:51:59;;;;;;;12.23;3.73;;;17.60;99.90;;;;;;5075761;28;20205;-59
2022/07/26 01:54:27;;;;;;;16.27;3.87;;;17.60;99.90;;;;;;5075620;28;20221;-59
2022/07/26 01:56:57;;;;;;;14.23;4.50;;;17.60;99.90;;;;;;5094111;28;20198;-59
2022/07/26 01:59:26;;;;;;;8.33;3.13;;;17.50;99.90;;;;;;5095718;28;20268;-60
2022/07/26 02:01:54;;;;;;;12.30;3.60;;;17.50;99.90;;;;;;5090436;28;20525;-59
2022/07/26 02:07:08;;;;;;;15.43;4.03;;;17.60;99.90;;;;;;5074126;28;20318;-59
2022/07/26 02:09:40;;;;;;;13.83;3.80;;;17.60;99.90;;;;;;5075345;28;20202;-59
2022/07/26 02:12:10;;;;;;;14.43;4.27;;;17.60;99.90;;;;;;5075335;28;20192;-59
2022/07/26 02:14:39;;;;;;;12.80;3.97;;;17.60;99.90;;;;;;5075559;28;20207;-60
2022/07/26 02:17:08;;;;;;;17.00;3.57;;;17.60;99.90;;;;;;5075327;28;20192;-60
2022/07/26 02:19:36;;;;;;;17.30;3.70;;;17.60;99.90;;;;;;5057546;28;20268;-59
2022/07/26 02:22:05;;;;;;;17.77;3.70;;;17.60;99.90;;;;;;5075193;28;20274;-59
2022/07/26 02:24:34;;;;;;;15.27;4.10;;;17.70;99.90;;;;;;5055352;28;20228;-60
2022/07/26 02:27:03;;;;;;;17.43;4.10;;;17.60;99.90;;;;;;5089912;28;20191;-59
2022/07/26 02:29:33;;;;;;;13.40;3.77;;;17.70;99.90;;;;;;5095407;28;20200;-59
2022/07/26 02:32:01;;;;;;;25.37;4.73;;;17.70;99.90;;;;;;5095273;28;20245;-60
2022/07/26 02:34:30;;;;;;;19.63;4.40;;;17.70;99.90;;;;;;5087416;28;20203;-60
2022/07/26 02:37:01;;;;;;;21.03;4.10;;;17.70;99.90;;;;;;5075043;28;20200;-59
2022/07/26 02:39:29;;;;;;;16.40;4.67;;;17.70;99.90;;;;;;5078275;28;20208;-60
2022/07/26 02:42:01;;;;;;;16.00;4.20;;;17.70;99.90;;;;;;5074660;28;20194;-60
2022/07/26 02:44:30;;;;;;;17.10;4.17;;;17.80;99.90;;;;;;5073179;28;20222;-59
2022/07/26 02:46:59;;;;;;;19.17;4.60;;;17.80;99.90;;;;;;5074446;28;20201;-60
2022/07/26 02:49:28;;;;;;;14.10;3.37;;;17.80;99.90;;;;;;5074792;28;20242;-60
2022/07/26 02:51:59;;;;;;;15.63;3.63;;;17.80;99.90;;;;;;5074210;28;20200;-60
2022/07/26 02:54:27;;;;;;;20.93;4.00;;;17.80;99.90;;;;;;5074288;28;20539;-60
2022/07/26 02:56:56;;;;;;;13.50;4.23;;;17.80;99.90;;;;;;5074057;28;20271;-59
2022/07/26 02:59:24;;;;;;;16.57;4.23;;;17.70;99.90;;;;;;5055888;28;20668;-60
2022/07/26 03:01:52;;;;;;;14.03;3.93;;;17.70;99.90;;;;;;5073563;28;20540;-60
2022/07/26 03:04:22;;;;;;;13.57;3.83;;;17.70;99.90;;;;;;5072696;28;20191;-60
2022/07/26 03:06:51;;;;;;;17.93;4.37;;;17.70;99.90;;;;;;5072267;28;20244;-60
2022/07/26 03:09:19;;;;;;;11.97;4.10;;;17.70;99.90;;;;;;5054111;28;20221;-59
2022/07/26 03:11:48;;;;;;;14.27;4.00;;;17.70;99.90;;;;;;5053903;28;20648;-60
2022/07/26 03:14:16;;;;;;;14.97;4.50;;;17.70;99.90;;;;;;5052468;28;20196;-60
2022/07/26 03:16:45;;;;;;;19.90;4.40;;;17.70;99.90;;;;;;5053920;28;20225;-60
2022/07/26 03:19:14;;;;;;;13.87;4.07;;;17.80;99.90;;;;;;5053807;28;20218;-60
2022/07/26 03:21:44;;;;;;;16.93;4.17;;;17.70;99.90;;;;;;5069094;28;20382;-59
2022/07/26 03:24:12;;;;;;;12.53;4.03;;;17.70;99.90;;;;;;5071801;28;20203;-60
2022/07/26 03:26:41;;;;;;;13.57;4.27;;;17.60;99.90;;;;;;5055107;28;20280;-60
2022/07/26 03:29:09;;;;;;;15.13;4.60;;;17.50;99.90;;;;;;5070985;28;20200;-60
2022/07/26 03:31:37;;;;;;;20.00;4.27;;;17.50;99.90;;;;;;5073537;28;20194;-60
2022/07/26 03:34:06;;;;;;;13.90;4.43;;;17.50;99.90;;;;;;5069190;28;20192;-60
2022/07/26 03:36:36;;;;;;;11.40;3.90;;;17.40;99.90;;;;;;5073654;28;20201;-60
2022/07/26 03:39:06;;;;;;;16.13;4.23;;;17.40;99.90;;;;;;5073619;28;20212;-60
2022/07/26 03:41:34;;;;;;;16.80;4.37;;;17.40;99.90;;;;;;5073434;28;20280;-60
2022/07/26 03:44:03;;;;;;;12.73;4.13;;;17.30;99.90;;;;;;5072271;28;20220;-60
2022/07/26 03:46:31;;;;;;;15.03;4.43;;;17.30;99.90;;;;;;5073530;28;20191;-60
2022/07/26 03:49:00;;;;;;;16.87;4.53;;;17.30;99.90;;;;;;5073381;28;20614;-60
2022/07/26 03:51:29;;;;;;;10.97;4.40;;;17.20;99.90;;;;;;5073417;28;20641;-60
2022/07/26 03:53:57;;;;;;;18.67;4.80;;;17.20;99.90;;;;;;5073727;28;20648;-60
2022/07/26 03:56:30;;;;;;;18.20;4.47;;;17.10;99.90;;;;;;5088984;28;20202;-59
2022/07/26 03:59:01;;;;;;;14.20;4.03;;;17.10;99.90;;;;;;5053421;28;20202;-60
2022/07/26 04:01:30;;;;;;;15.13;4.63;;;17.00;99.90;;;;;;5098433;28;20242;-60
2022/07/26 04:04:09;;;;;;;16.67;4.40;;;17.00;99.90;;;;;;5072002;28;20205;-60
2022/07/26 04:06:39;;;;;;;12.10;4.27;;;17.00;99.90;;;;;;5072340;28;20552;-60
2022/07/26 04:09:08;;;;;;;17.70;4.40;;;17.00;99.90;;;;;;5072996;28;20209;-59
2022/07/26 04:11:39;;;;;;;14.80;4.70;;;17.10;99.90;;;;;;5062731;28;20196;-60
2022/07/26 04:14:07;;;;;;;16.20;4.57;;;17.00;99.90;;;;;;5066556;28;20274;-60
2022/07/26 04:16:36;;;;;;;22.53;5.33;;;17.00;99.90;;;;;;5071956;28;20197;-60
2022/07/26 04:19:10;;;;;;;14.27;4.50;;;17.00;99.90;;;;;;5073551;28;20233;-60
2022/07/26 04:21:39;;;;;;;16.10;4.43;;;17.00;99.90;;;;;;5073267;28;20267;-60
2022/07/26 04:24:08;;;;;;;20.53;4.53;;;17.00;99.90;;;;;;5081867;28;20278;-61
2022/07/26 04:26:38;;;;;;;19.00;4.90;;;16.90;99.90;;;;;;5082286;28;20203;-61
2022/07/26 04:29:07;;;;;;;13.53;4.40;;;16.90;99.90;;;;;;5072986;28;20671;-60
2022/07/26 04:31:38;;;;;;;18.37;4.70;;;16.80;99.90;;;;;;5073417;28;20187;-59
2022/07/26 04:34:07;;;;;;;18.97;4.90;;;16.80;99.90;;;;;;5073024;28;20289;-60
2022/07/26 04:36:36;;;;;;;18.13;4.60;;;16.80;99.90;;;;;;5072990;28;20197;-61
2022/07/26 04:39:04;;;;;;;16.07;4.20;;;16.80;99.90;;;;;;5072805;28;20285;-60
2022/07/26 04:41:33;;;;;;;13.13;4.20;;;16.70;99.90;;;;;;5059382;28;20200;-60
2022/07/26 04:44:02;;;;;;;16.23;5.03;;;16.70;99.90;;;;;;5052896;28;20224;-60
2022/07/26 04:46:31;;;;;;;14.90;4.90;;;16.70;99.90;;;;;;5069766;28;20207;-60
2022/07/26 04:48:59;;;;;;;13.17;4.80;;;16.70;99.90;;;;;;5073096;28;20242;-60
2022/07/26 04:51:27;;;;;;;16.10;4.73;;;16.70;99.90;;;;;;5073179;28;20203;-59
2022/07/26 04:53:56;;;;;;;14.83;4.97;;;16.80;99.90;;;;;;5072991;28;20268;-60
2022/07/26 04:56:24;;;;;;;11.43;4.10;;;16.80;99.90;;;;;;5073204;28;20194;-60
2022/07/26 04:58:52;;;;;;;16.80;4.60;;;16.80;99.90;;;;;;5071738;28;20651;-60
2022/07/26 05:01:22;;;;;;;16.97;4.53;;;16.80;99.90;;;;;;5072669;28;20209;-60
2022/07/26 05:03:50;;;;;;;17.77;4.10;;;16.80;99.90;;;;;;5072839;28;20193;-60
2022/07/26 05:06:19;;;;;;;16.57;4.53;;;16.90;99.90;;;;;;5071905;28;20555;-60
2022/07/26 05:08:47;;;;;;;15.60;4.87;;;17.00;99.90;;;;;;5072666;28;20648;-60
2022/07/26 05:11:16;;;;;;;8.17;3.73;;;17.00;99.90;;;;;;5072753;28;20184;-60
2022/07/26 05:13:44;;;;;;;15.77;4.00;;;17.10;99.90;;;;;;5056113;28;20677;-60
2022/07/26 05:16:12;;;;;;;12.47;4.53;;;17.20;99.90;;;;;;5063684;28;20196;-60
2022/07/26 05:18:42;;;;;;;8.27;3.50;;;17.30;99.90;;;;;;5074498;28;20196;-60
2022/07/26 05:21:17;;;;;;;14.57;4.00;;;17.50;99.90;;;;;;5075076;28;20213;-60
2022/07/26 05:23:46;;;;;;;11.77;3.90;;;17.60;99.90;;;;;;5069580;28;20204;-60
2022/07/26 05:26:14;;;;;;;12.13;3.73;;;17.80;99.90;;;;;;5076569;28;20268;-60
2022/07/26 05:28:42;;;;;;;14.90;3.90;;;18.00;99.90;;;;;;5074635;28;20188;-60
2022/07/26 05:31:11;;;;;;;7.40;3.40;;;18.10;99.90;;;;;;5076349;28;20682;-60
2022/07/26 05:33:42;;;;;;;8.50;3.30;;;18.30;99.90;;;;;;5075974;28;20200;-60
2022/07/26 05:36:12;;;;;;;11.50;3.90;;;18.50;99.90;;;;;;5076443;28;20278;-60
2022/07/26 05:38:40;;;;;;;8.90;3.40;;;18.60;99.90;;;;;;5075866;28;20298;-61
2022/07/26 05:41:09;;;;;;;9.13;3.50;;;18.60;99.90;;;;;;5075902;28;20219;-61
2022/07/26 05:43:39;;;;;;;10.17;3.47;;;18.80;99.90;;;;;;5080240;28;20204;-60
2022/07/26 05:46:10;;;;;;;13.03;4.07;;;18.70;99.90;;;;;;5075756;28;20203;-60
2022/07/26 05:48:39;;;;;;;10.50;3.33;;;18.70;99.90;;;;;;5075835;28;20188;-60
2022/07/26 05:51:08;;;;;;;6.90;3.00;;;18.60;99.90;;;;;;5075886;28;20679;-60
2022/07/26 05:53:38;;;;;;;8.70;3.57;;;18.60;99.90;;;;;;5097357;28;20254;-60
2022/07/26 05:56:07;;;;;;;8.37;3.30;;;18.50;99.90;;;;;;5057566;28;20251;-60
2022/07/26 05:58:36;;;;;;;6.10;3.37;;;18.50;99.90;;;;;;5075580;28;20287;-60
2022/07/26 06:01:05;;;;;;;9.00;3.37;;;18.40;99.90;;;;;;5074648;28;20694;-60
2022/07/26 06:03:33;;;;;;;7.23;3.43;;;18.40;99.90;;;;;;5075510;28;20199;-60
2022/07/26 06:06:02;;;;;;;8.43;3.50;;;18.40;99.90;;;;;;5067190;28;20647;-60
2022/07/26 06:08:30;;;;;;;8.17;3.20;;;18.40;99.90;;;;;;5055590;28;20315;-60
2022/07/26 06:10:59;;;;;;;8.73;3.30;;;18.40;99.90;;;;;;5055584;28;20187;-60
2022/07/26 06:13:28;;;;;;;9.77;3.40;;;18.40;99.90;;;;;;5064678;28;20632;-60
2022/07/26 06:15:56;;;;;;;9.73;3.43;;;18.40;99.90;;;;;;5075217;28;20223;-60
2022/07/26 06:18:25;;;;;;;9.07;3.23;;;18.40;99.90;;;;;;5074314;28;20194;-60
2022/07/26 06:20:54;;;;;;;10.80;3.80;;;18.50;99.90;;;;;;5075395;28;20299;-60
2022/07/26 06:23:27;;;;;;;10.37;3.50;;;18.60;99.90;;;;;;5074747;28;20279;-60
2022/07/26 06:26:03;;;;;;;10.60;3.20;;;18.60;99.90;;;;;;5071217;28;20194;-60
2022/07/26 06:28:32;;;;;;;8.80;3.83;;;18.70;99.90;;;;;;5107067;28;20196;-60
2022/07/26 06:31:01;;;;;;;9.00;3.53;;;18.70;99.90;;;;;;5074975;28;20199;-60
2022/07/26 06:33:29;;;;;;;9.20;2.97;;;18.70;99.90;;;;;;5075124;28;20714;-60
2022/07/26 06:35:57;;;;;;;7.93;3.20;;;18.70;99.90;;;;;;5075009;28;20279;-60
2022/07/26 06:38:26;;;;;;;11.80;3.30;;;18.80;99.90;;;;;;5074809;28;20274;-60
2022/07/26 06:40:54;;;;;;;7.47;3.10;;;18.80;99.90;;;;;;5074715;28;20663;-60
2022/07/26 06:43:24;;;;;;;7.10;3.20;;;18.90;99.90;;;;;;5070050;28;20288;-60
2022/07/26 06:45:52;;;;;;;8.83;3.33;;;19.00;99.90;;;;;;5065551;28;20206;-60
2022/07/26 06:48:21;;;;;;;6.80;2.93;;;19.00;99.90;;;;;;5075090;28;20257;-60
2022/07/26 06:50:50;;;;;;;8.07;2.97;;;19.10;99.90;;;;;;5078499;28;20686;-60
2022/07/26 06:53:19;;;;;;;7.30;2.93;;;19.10;99.90;;;;;;5074545;28;20188;-60
2022/07/26 06:55:47;;;;;;;8.80;3.40;;;19.10;99.90;;;;;;5074999;28;20271;-60
2022/07/26 06:58:16;;;;;;;4.90;2.60;;;19.10;99.90;;;;;;5074696;28;21010;-60
2022/07/26 07:00:45;;;;;;;8.03;2.83;;;19.10;99.90;;;;;;5107184;28;20529;-59
2022/07/26 07:03:14;;;;;;;11.10;2.70;;;19.10;99.90;;;;;;5107197;28;20184;-59
2022/07/26 07:05:46;;;;;;;7.27;3.30;;;19.10;99.90;;;;;;5074427;28;20247;-60
2022/07/26 07:08:20;;;;;;;4.50;2.67;;;19.00;99.90;;;;;;5074108;28;20223;-59
2022/07/26 07:10:50;;;;;;;4.80;2.73;;;19.10;99.90;;;;;;5074018;28;20660;-59
2022/07/26 07:13:19;;;;;;;6.47;2.73;;;19.10;99.90;;;;;;5072700;28;20184;-59
2022/07/26 07:15:49;;;;;;;5.73;2.93;;;19.20;99.90;;;;;;5056263;28;20284;-60
2022/07/26 07:18:17;;;;;;;8.60;2.70;;;19.30;99.90;;;;;;5052780;28;20236;-59
2022/07/26 07:20:46;;;;;;;4.47;2.80;;;19.40;99.90;;;;;;5070295;28;20226;-60
2022/07/26 07:23:14;;;;;;;7.03;2.50;;;19.30;99.90;;;;;;5063832;28;20571;-59
2022/07/26 07:25:42;;;;;;;7.87;2.60;;;19.30;99.90;;;;;;5054652;28;20254;-59
2022/07/26 07:28:12;;;;;;;8.23;3.13;;;19.40;99.90;;;;;;5073871;28;20231;-60
2022/07/26 07:30:40;;;;;;;6.80;2.57;;;19.50;99.90;;;;;;5067570;28;20216;-60
2022/07/26 07:33:12;;;;;;;6.00;2.70;;;19.60;99.90;;;;;;5054518;28;20271;-59
2022/07/26 07:35:50;;;;;;;6.37;2.77;;;19.60;99.90;;;;;;5068651;28;20196;-60
2022/07/26 07:38:19;;;;;;;8.83;2.73;;;19.60;99.90;;;;;;5073819;28;20195;-60
2022/07/26 07:40:50;;;;;;;7.53;2.90;;;19.60;99.90;;;;;;5073303;28;20192;-59
2022/07/26 07:43:18;;;;;;;5.27;2.63;;;19.70;99.90;;;;;;5074091;28;20247;-59
2022/07/26 07:45:46;;;;;;;3.83;2.60;;;19.60;99.90;;;;;;5075792;28;20213;-60
2022/07/26 07:48:17;;;;;;;9.47;2.60;;;19.50;99.90;;;;;;5069936;28;20235;-59
2022/07/26 07:50:45;;;;;;;6.83;2.63;;;19.70;99.90;;;;;;5059318;28;20203;-59
2022/07/26 07:53:14;;;;;;;5.17;2.30;;;19.60;99.90;;;;;;5053356;28;20268;-59
2022/07/26 07:55:42;;;;;;;4.27;2.27;;;19.70;99.90;;;;;;5057213;28;20192;-60
2022/07/26 07:58:15;;;;;;;7.23;2.30;;;19.80;99.90;;;;;;5056563;28;20192;-59
2022/07/26 08:00:46;;;;;;;3.87;2.57;;;19.90;99.90;;;;;;5102774;28;20636;-60
2022/07/26 08:03:19;;;;;;;8.67;2.43;;;20.00;99.90;;;;;;5053537;28;20274;-60
2022/07/26 08:05:48;;;;;;;7.20;2.43;;;20.10;99.90;;;;;;5065439;28;20219;-60
2022/07/26 08:08:18;;;;;;;10.37;3.03;;;20.20;99.90;;;;;;5073098;28;20314;-60
2022/07/26 08:10:50;;;;;;;7.53;2.47;;;20.20;99.90;;;;;;5071427;28;20595;-59
2022/07/26 08:13:21;;;;;;;5.50;2.77;;;20.50;99.90;;;;;;5055562;28;20212;-60
2022/07/26 08:15:50;;;;;;;4.93;2.50;;;20.70;99.90;;;;;;5067379;28;20246;-60
2022/07/26 08:18:21;;;;;;;7.53;2.77;;;20.80;99.90;;;;;;5071393;28;20598;-60
2022/07/26 08:20:51;;;;;;;4.07;2.43;;;20.90;99.90;;;;;;5073081;28;20202;-60
2022/07/26 08:23:20;;;;;;;7.67;2.77;;;21.10;99.90;;;;;;5073007;28;20631;-60
2022/07/26 08:25:49;;;;;;;6.23;2.37;;;21.20;99.90;;;;;;5072899;28;20275;-60
2022/07/26 08:28:27;;;;;;;4.97;2.30;;;21.40;99.90;;;;;;5055244;28;20207;-60
2022/07/26 08:31:18;;;;;;;5.00;2.40;;;21.80;99.90;;;;;;5073065;28;20194;-60
2022/07/26 08:33:48;;;;;;;6.20;2.13;;;22.30;99.90;;;;;;5072884;28;20671;-60
2022/07/26 08:36:17;;;;;;;3.37;2.00;;;22.70;99.90;;;;;;5073191;28;20224;-60
2022/07/26 08:38:46;;;;;;;4.63;2.40;;;23.30;99.90;;;;;;5072789;28;20610;-61
2022/07/26 08:41:16;;;;;;;3.53;2.30;;;23.60;99.90;;;;;;5062995;28;20193;-60
2022/07/26 08:43:45;;;;;;;6.43;2.80;;;23.50;99.90;;;;;;5066459;28;20224;-60
2022/07/26 08:46:22;;;;;;;3.50;2.60;;;23.80;99.90;;;;;;5081417;28;20198;-61
2022/07/26 08:48:56;;;;;;;5.57;2.80;;;24.60;99.90;;;;;;5072790;28;20250;-60
2022/07/26 08:51:26;;;;;;;4.07;2.50;;;25.40;99.90;;;;;;5072647;28;20642;-62
2022/07/26 08:53:56;;;;;;;7.90;2.10;;;26.20;99.90;;;;;;5076767;28;20525;-61
2022/07/26 08:56:33;;;;;;;2.70;1.95;;;26.40;99.90;;;;;;5075718;28;20188;-61
2022/07/26 08:59:06;;;;;;;1.77;1.65;;;26.60;99.90;;;;;;5067597;28;20691;-61
2022/07/26 09:01:34;;;;;;;4.50;1.80;;;27.00;99.90;;;;;;5072989;28;20224;-61
2022/07/26 09:04:19;;;;;;;3.78;1.65;;;26.90;99.90;;;;;;5075236;28;20299;-60
2022/07/26 09:07:03;;;;;;;2.35;1.50;;;26.80;99.90;;;;;;5073236;28;20594;-61
2022/07/26 09:09:34;;;;;;;5.05;1.80;;;27.10;99.90;;;;;;5075244;28;20234;-61
2022/07/26 09:12:24;;;;;;;3.20;1.80;;;27.80;99.90;;;;;;5076425;28;20220;-61
2022/07/26 09:14:53;;;;;;;2.20;1.65;;;27.70;99.90;;;;;;5076814;28;20216;-61
2022/07/26 09:17:24;;;;;;;3.33;1.60;;;27.20;99.90;;;;;;5073958;28;20298;-61
2022/07/26 09:20:08;;;;;;;4.68;1.80;;;26.80;99.90;;;;;;5072244;28;20279;-61
2022/07/26 09:22:37;;;;;;;4.32;2.13;;;26.60;99.90;;;;;;5090214;28;20216;-61
2022/07/26 09:25:21;;;;;;;2.90;1.90;;;26.20;99.90;;;;;;5067822;28;20212;-61
2022/07/26 09:27:50;;;;;;;3.58;1.80;;;25.50;99.90;;;;;;5075377;28;20236;-61
2022/07/26 09:30:18;;;;;;;2.45;1.80;;;25.30;99.90;;;;;;5064226;28;20597;-60
2022/07/26 09:32:57;;;;;;;4.53;1.67;;;25.20;99.90;;;;;;5075810;28;20606;-61
2022/07/26 09:35:28;;;;;;;3.10;1.67;;;24.70;99.90;;;;;;5076182;28;20606;-60
2022/07/26 09:38:17;;;;;;;3.13;1.40;;;24.50;99.90;;;;;;5075879;28;20196;-60
2022/07/26 09:40:45;;;;;;;4.07;1.90;;;24.50;99.90;;;;;;5076127;28;20202;-59
2022/07/26 09:43:18;;;;;;;3.03;1.77;;;24.40;99.90;;;;;;5061276;28;20274;-60
2022/07/26 09:46:04;;;;;;;3.10;1.60;;;24.60;99.90;;;;;;5071827;28;20192;-60
2022/07/26 09:48:36;;;;;;;4.10;2.00;;;24.50;99.90;;;;;;5076292;28;20577;-60
2022/07/26 09:51:47;;;;;;;3.33;1.50;;;24.50;99.90;;;;;;5075714;28;20192;-60
2022/07/26 09:54:19;;;;;;;3.77;1.80;;;24.50;99.90;;;;;;5070757;28;20228;-60
2022/07/26 09:56:49;;;;;;;4.20;1.60;;;24.40;99.90;;;;;;5075852;28;20562;-60
2022/07/26 09:59:19;;;;;;;5.07;1.80;;;24.40;99.90;;;;;;5074624;28;20294;-60
2022/07/26 10:01:48;;;;;;;2.57;1.40;;;24.20;99.90;;;;;;5075531;28;20574;-60
2022/07/26 10:04:34;;;;;;;2.23;1.93;;;24.10;99.90;;;;;;5086921;28;20200;-60
2022/07/26 10:07:04;;;;;;;2.03;1.30;;;23.90;99.90;;;;;;5070617;28;20642;-60
2022/07/26 10:09:38;;;;;;;1.90;1.43;;;23.30;99.90;;;;;;5089245;28;20200;-60
2022/07/26 10:12:12;;;;;;;1.80;0.93;;;22.90;99.90;;;;;;5073531;28;20222;-60
2022/07/26 10:14:45;;;;;;;3.97;1.20;;;22.90;99.90;;;;;;5074795;28;20793;-60
2022/07/26 10:17:46;;;;;;;1.00;1.00;;;23.00;99.90;;;;;;5059283;28;20211;-60
2022/07/26 10:20:39;;;;;;;1.03;0.90;;;23.20;99.90;;;;;;5055178;28;20202;-60
2022/07/26 10:23:35;;;;;;;0.83;0.80;;;23.50;99.90;;;;;;5069621;28;20562;-59
2022/07/26 10:26:05;;;;;;;1.03;0.70;;;24.40;99.90;;;;;;5069188;28;20285;-60
2022/07/26 10:28:35;;;;;;;1.60;0.80;;;24.90;99.90;;;;;;5064028;28;20193;-60
2022/07/26 10:31:23;;;;;;;0.70;0.70;;;25.50;99.90;;;;;;5062117;28;20202;-61
2022/07/26 10:33:53;;;;;;;0.60;0.60;;;26.10;99.90;;;;;;5067229;28;20271;-60
2022/07/26 10:36:26;;;;;;;2.03;1.13;;;25.60;99.90;;;;;;5106466;28;20665;-60
2022/07/26 10:39:08;;;;;;;1.00;0.90;;;25.20;99.90;;;;;;5074922;28;20206;-60
2022/07/26 10:41:39;;;;;;;0.70;0.70;;;24.70;99.90;;;;;;5074325;28;20193;-60
2022/07/26 10:44:17;;;;;;;0.90;0.90;;;25.10;99.90;;;;;;5076943;28;20299;-60
2022/07/26 10:47:02;;;;;;;0.75;0.75;;;26.20;99.90;;;;;;5075824;28;20258;-61
2022/07/26 10:49:34;;;;;;;0.50;0.50;;;27.60;99.90;;;;;;5074157;28;20203;-61
2022/07/26 10:52:09;;;;;;;1.10;0.70;;;27.70;99.90;;;;;;5073036;28;21069;-60
2022/07/26 10:55:18;;;;;;;0.55;0.55;;;27.30;99.90;;;;;;5093101;28;20194;-60
2022/07/26 10:57:49;;;;;;;1.88;0.82;;;26.30;99.90;;;;;;5069690;28;20231;-60
2022/07/26 11:00:25;;;;;;;0.50;0.45;;;25.80;99.90;;;;;;5071580;28;20193;-60
2022/07/26 11:02:56;;;;;;;0.60;0.60;;;25.50;99.90;;;;;;5073595;28;20288;-60
2022/07/26 11:05:29;;;;;;;0.43;0.43;;;25.40;99.90;;;;;;5074277;28;20256;-60
2022/07/26 11:08:08;;;;;;;0.67;0.67;;;25.20;99.90;;;;;;5074191;28;20700;-59
2022/07/26 11:10:42;;;;;;;0.77;0.77;;;26.00;99.90;;;;;;5064823;28;20258;-61
2022/07/26 11:13:15;;;;;;;0.97;0.87;;;26.40;99.90;;;;;;5065200;28;20205;-61
2022/07/26 11:15:45;;;;;;;0.90;0.90;;;25.70;99.90;;;;;;5056906;28;20296;-60
2022/07/26 11:18:20;;;;;;;0.80;0.80;;;25.60;99.90;;;;;;5074328;28;20249;-60
2022/07/26 11:20:52;;;;;;;1.10;1.10;;;26.00;99.90;;;;;;5073803;28;20198;-60
2022/07/26 11:23:23;;;;;;;1.30;1.25;;;26.50;99.90;;;;;;5074083;28;20198;-60
2022/07/26 11:26:06;;;;;;;0.90;0.90;;;26.60;99.90;;;;;;5067616;28;20189;-60
2022/07/26 11:28:51;;;;;;;0.93;0.93;;;26.30;99.90;;;;;;5073978;28;20265;-61
2022/07/26 11:31:24;;;;;;;0.80;0.80;;;26.20;99.90;;;;;;5081800;28;20278;-60
2022/07/26 11:34:51;;;;;;;1.00;1.00;;;26.20;99.90;;;;;;5072591;28;20188;-60
2022/07/26 11:37:19;;;;;;;1.00;1.00;;;26.20;99.90;;;;;;5068114;28;20280;-60
2022/07/26 11:39:48;;;;;;;1.50;1.47;;;25.90;99.90;;;;;;5072721;28;20282;-59
2022/07/26 11:42:20;;;;;;;1.03;1.00;;;25.90;99.90;;;;;;5072612;28;20197;-61
2022/07/26 11:44:52;;;;;;;1.27;1.20;;;25.50;99.90;;;;;;5073657;28;20225;-59
2022/07/26 11:47:23;;;;;;;1.13;1.10;;;25.10;99.90;;;;;;5072331;28;20698;-59
2022/07/26 11:49:54;;;;;;;2.17;1.50;;;24.90;99.90;;;;;;5073507;28;20224;-60
2022/07/26 11:52:42;;;;;;;1.50;1.40;;;25.10;99.90;;;;;;5065347;28;21026;-59
2022/07/26 11:55:11;;;;;;;1.30;1.30;;;25.50;99.90;;;;;;5058854;28;20227;-60
2022/07/26 11:57:39;;;;;;;2.07;1.77;;;25.70;99.90;;;;;;5073371;28;20196;-59
2022/07/26 12:00:10;;;;;;;1.53;1.47;;;25.50;99.90;;;;;;5072263;28;20267;-60
2022/07/26 12:02:39;;;;;;;2.20;2.00;;;25.00;99.90;;;;;;5069280;28;20277;-59
2022/07/26 12:05:16;;;;;;;4.57;2.10;;;24.40;99.90;;;;;;5092453;28;20245;-59
2022/07/26 12:07:57;;;;;;;2.27;1.70;;;24.00;99.90;;;;;;5093698;28;20249;-60
2022/07/26 12:10:26;;;;;;;2.53;1.43;;;24.00;99.90;;;;;;5078274;28;20202;-60
2022/07/26 12:13:11;;;;;;;1.50;1.40;;;24.10;99.90;;;;;;5073308;28;20192;-59
2022/07/26 12:15:49;;;;;;;1.30;1.30;;;24.30;99.90;;;;;;5069388;28;20533;-60
2022/07/26 12:18:25;;;;;;;2.30;1.30;;;24.60;99.90;;;;;;5057829;28;20257;-60
2022/07/26 12:20:58;;;;;;;2.63;1.53;;;25.00;99.90;;;;;;5053442;28;20254;-59
2022/07/26 12:27:13;;;;;;;1.17;1.17;;;25.00;99.90;;;;;;5072441;28;20655;-60
2022/07/26 12:29:43;;;;;;;1.03;0.93;;;24.70;99.90;;;;;;5073179;28;20682;-60
2022/07/26 12:32:15;;;;;;;0.70;0.70;;;24.60;99.90;;;;;;5073167;28;20640;-60
2022/07/26 12:34:56;;;;;;;0.67;0.67;;;24.70;99.90;;;;;;5073259;28;20193;-59
2022/07/26 12:37:25;;;;;;;5.80;1.00;;;24.40;99.90;;;;;;5071714;28;20226;-59
2022/07/26 12:40:11;;;;;;;2.43;1.03;;;24.50;99.90;;;;;;5064165;28;20226;-60
2022/07/26 12:43:06;;;;;;;1.23;1.13;;;24.20;99.90;;;;;;5072857;28;20275;-60
2022/07/26 12:50:14;;;;;;;1.77;1.07;;;24.00;99.90;;;;;;5061039;28;20252;-59
2022/07/26 12:52:43;;;;;;;1.60;1.30;;;23.60;99.90;;;;;;5069993;28;20202;-59
2022/07/26 12:55:15;;;;;;;2.10;1.17;;;23.50;99.90;;;;;;5071455;28;20217;-59
2022/07/26 12:57:44;;;;;;;2.43;1.03;;;23.40;99.90;;;;;;5065302;28;20260;-59
2022/07/26 13:00:16;;;;;;;0.90;0.90;;;23.30;99.90;;;;;;5072805;28;20196;-59
2022/07/26 13:02:45;;;;;;;2.03;1.10;;;23.10;99.90;;;;;;5074244;28;20277;-59
2022/07/26 13:05:15;;;;;;;2.63;1.00;;;22.90;99.90;;;;;;5080444;28;20248;-59
2022/07/26 13:07:44;;;;;;;0.80;0.80;;;22.90;99.90;;;;;;5072785;28;20233;-59
2022/07/26 13:10:12;;;;;;;1.23;1.07;;;22.70;99.90;;;;;;5072711;28;20213;-59
2022/07/26 13:13:00;;;;;;;0.83;0.83;;;22.60;99.90;;;;;;5057076;28;20201;-59
2022/07/26 13:15:29;;;;;;;1.43;0.93;;;22.40;99.90;;;;;;5071951;28;20194;-60
2022/07/26 13:18:06;;;;;;;2.67;1.30;;;22.30;99.90;;;;;;5071286;28;20276;-60
2022/07/26 13:20:37;;;;;;;3.60;1.20;;;22.30;99.90;;;;;;5072637;28;20196;-60